CheckWX is a tool to help pilots better visualize weather data.  It is not intended as a substitute for an official pre-flight weather briefing.

07:20:36 UTC

ZGSZ TAF
Shenzhen Bao'an International Airport
Shenzhen, China
TAF ZGSZ 200307Z 2006/2106 18004MPS 6000 FEW040 TX33/2007Z TN27/2022Z

Jun-20@
06:00 UTC

Jun-20 @ 06:00 UTC

Jun-21@
06:00 UTC

Jun-21 @ 06:00 UTC

TAF ZGSZ 200307Z 2006/2106 18004MPS 6000 FEW040 TX33/2007Z TN27/2022Z
Wind
  • 180° at 8 KTS
Cloud Levels
  • Few at 4,000' AGL